Create Tblcommutelog Verified Points Advance Search
| # | Trip ID | Id Commuter | Trip Date | Trip Num | Current Lat | Current Lng | Delta Distance | Current Time | Activity | Activity Confidence | Current Speed | |
|---|---|---|---|---|---|---|---|---|---|---|---|---|
| 71161 | 251125_753800_16619976_1659 | 753800 | (not set) | (not set) | 38.905382081004 | -77.003234157038 | 2.9877 | 2025-11-25 17:21:07 | on_bicycle | 100 | 1.966972739546 | |
| 71162 | 251125_789022_16657785_1658 | 789022 | (not set) | (not set) | 38.857568646817 | -77.046029158008 | 4.4353 | 2025-11-25 17:21:07 | in_vehicle | 100 | 7.0587498994162 | |
| 71163 | 251125_772509_16659352_1652 | 772509 | (not set) | (not set) | 38.867337 | -77.0014105 | 8.1827 | 2025-11-25 17:21:08 | in_vehicle | 100 | 3.8177152717552 | |
| 71164 | 251125_787617_16656109_1628 | 787617 | (not set) | (not set) | 38.888289066283 | -76.971029410124 | 5.1097 | 2025-11-25 17:21:09 | in_vehicle | 100 | 5.5119940633186 | |
| 71165 | 251125_787617_16656109_1628 | 787617 | (not set) | (not set) | 38.888289066283 | -76.971029410124 | 5.1097 | 2025-11-25 17:21:09 | in_vehicle | 100 | 5.5119940633186 | |
| 71166 | 251125_765311_16652720_1608 | 765311 | (not set) | (not set) | 39.071802931628 | -76.72237294922 | 21.6922 | 2025-11-25 17:21:09 | in_vehicle | 100 | 13.594463865817 | |
| 71167 | 251125_780998_16648672_1655 | 780998 | (not set) | (not set) | 38.942387510112 | -77.122349031204 | 6.0379 | 2025-11-25 17:21:10 | in_vehicle | 100 | 1.2695914955251 | |
| 71168 | 251125_780998_16648672_1655 | 780998 | (not set) | (not set) | 38.942387510112 | -77.122349031204 | 6.0379 | 2025-11-25 17:21:10 | in_vehicle | 100 | 1.2695914955251 | |
| 71169 | 251125_780998_16648672_1655 | 780998 | (not set) | (not set) | 38.942387510112 | -77.122349031204 | 6.0379 | 2025-11-25 17:21:10 | in_vehicle | 100 | 1.2695914955251 | |
| 71170 | 251125_108110_1016219_1709 | 108110 | (not set) | (not set) | 38.910503499463 | -77.044334324106 | 2.2829 | 2025-11-25 17:21:08 | in_vehicle | 100 | -0.44703925898772 | |
| 71171 | 251125_784718_16652718_1702 | 784718 | (not set) | (not set) | 39.103717681059 | -77.048883987385 | 7.7192 | 2025-11-25 17:21:13 | in_vehicle | 100 | 11.538083274473 | |
| 71172 | 251125_788105_16656667_1610 | 788105 | (not set) | (not set) | 38.7921908882 | -76.760564254794 | 20.5784 | 2025-11-25 17:21:16 | unknown | 100 | 8.9899594982431 | |
| 71173 | 251125_785147_16653236_1705 | 785147 | (not set) | (not set) | 38.970554266667 | -77.4919599 | 4.3873 | 2025-11-25 17:21:16 | in_vehicle | 100 | 0 | |
| 71174 | 251125_789022_16657785_1658 | 789022 | (not set) | (not set) | 38.855816194784 | -77.045116294475 | 4.5658 | 2025-11-25 17:21:20 | in_vehicle | 100 | 7.3359142399886 | |
| 71175 | 251125_765311_16652720_1608 | 765311 | (not set) | (not set) | 39.069634291176 | -76.725384461801 | 21.9126 | 2025-11-25 17:21:20 | in_vehicle | 100 | 14.58242062818 | |
| 71176 | 251125_789839_16658772_1558 | 789839 | (not set) | (not set) | 38.439040648454 | -77.441670910559 | 50.279 | 2025-11-25 17:21:20 | in_vehicle | 100 | 4.3407512047708 | |
| 71177 | 251125_784650_16652626_1652 | 784650 | (not set) | (not set) | 38.807468484717 | -77.059846938954 | 6.7113 | 2025-11-25 17:21:21 | in_vehicle | 100 | 4.7475569304496 | |
| 71178 | 251125_787617_16656109_1628 | 787617 | (not set) | (not set) | 38.889313344359 | -76.969776631491 | 5.2075 | 2025-11-25 17:21:21 | in_vehicle | 100 | 6.1691417740306 | |
| 71179 | 251125_787617_16656109_1628 | 787617 | (not set) | (not set) | 38.889313344359 | -76.969776631491 | 5.2075 | 2025-11-25 17:21:21 | in_vehicle | 100 | 6.1691417740306 | |
| 71180 | 251125_753800_16619976_1659 | 753800 | (not set) | (not set) | 38.904455800624 | -77.00337226869 | 3.0521 | 2025-11-25 17:21:21 | on_bicycle | 100 | 2.9236367537797 |